Time;durP1;ratioP1;P1;durP2;ratioP2;P2;SDS_P1;SDS_P2;PMS_P1;PMS_P2;Temp;Humidity;BMP_temperature;BMP_pressure;BME280_temperature;BME280_humidity;BME280_pressure;Samples;Min_cycle;Max_cycle;Signal;HPM_P1;HPM_P2
2022/08/07 00:02:13;;;;;;;5.30;3.17;;;29.80;96.70;;;;;;4944746;28;20059;-83
2022/08/07 00:05:01;;;;;;;5.60;2.90;;;29.80;96.70;;;;;;4938659;29;20039;-83
2022/08/07 00:07:32;;;;;;;4.45;2.70;;;29.80;96.70;;;;;;4959790;28;20043;-83
2022/08/07 00:10:09;;;;;;;3.78;3.05;;;29.70;96.70;;;;;;4946188;28;20049;-83
2022/08/07 00:12:59;;;;;;;5.03;3.30;;;29.60;96.70;;;;;;4958267;28;20061;-82
2022/08/07 00:15:30;;;;;;;5.10;2.88;;;29.70;96.70;;;;;;4955964;28;20050;-83
2022/08/07 00:18:05;;;;;;;5.80;2.80;;;29.70;96.70;;;;;;4966309;28;20051;-82
2022/08/07 00:20:45;;;;;;;4.90;3.45;;;29.70;96.70;;;;;;4959160;28;20051;-83
2022/08/07 00:23:14;;;;;;;6.20;3.53;;;29.70;96.70;;;;;;4951679;28;20039;-82
2022/08/07 00:25:45;;;;;;;5.15;3.85;;;29.70;96.70;;;;;;4948527;29;20492;-82
2022/08/07 00:28:28;;;;;;;4.03;2.97;;;29.70;96.70;;;;;;4957907;28;20039;-82
2022/08/07 00:31:03;;;;;;;6.18;3.03;;;29.70;96.70;;;;;;4967248;28;20055;-83
2022/08/07 00:33:33;;;;;;;5.82;3.00;;;29.60;96.70;;;;;;4961350;28;20059;-83
2022/08/07 00:36:03;;;;;;;4.82;2.97;;;29.50;96.70;;;;;;4950138;28;20047;-82
2022/08/07 00:38:32;;;;;;;5.85;3.00;;;29.50;96.70;;;;;;4966379;28;20047;-82
2022/08/07 00:41:02;;;;;;;3.78;3.28;;;29.50;96.70;;;;;;4967050;28;20047;-81
2022/08/07 00:43:42;;;;;;;5.82;3.20;;;29.60;96.70;;;;;;4951412;28;20114;-82
2022/08/07 00:46:30;;;;;;;3.97;3.30;;;29.60;96.70;;;;;;4979925;28;20062;-82
2022/08/07 00:49:01;;;;;;;4.45;3.15;;;29.60;96.70;;;;;;4970636;28;20134;-82
2022/08/07 00:51:30;;;;;;;3.50;3.20;;;29.50;96.70;;;;;;4972116;28;20730;-83
2022/08/07 00:54:18;;;;;;;6.95;3.30;;;29.40;96.70;;;;;;4985100;28;20058;-83
2022/08/07 00:56:50;;;;;;;5.53;3.10;;;29.40;96.70;;;;;;4986504;28;20051;-82
2022/08/07 00:59:20;;;;;;;6.35;3.15;;;29.40;96.70;;;;;;4963136;28;20238;-83
2022/08/07 01:02:03;;;;;;;5.15;3.53;;;29.40;96.70;;;;;;4983166;28;20154;-82
2022/08/07 01:04:40;;;;;;;4.30;3.30;;;29.30;96.70;;;;;;4969218;28;20050;-83
2022/08/07 01:07:10;;;;;;;3.33;2.95;;;29.20;96.70;;;;;;4984875;28;20141;-82
2022/08/07 01:09:40;;;;;;;4.65;3.25;;;29.20;96.70;;;;;;4985031;28;20050;-82
2022/08/07 01:12:30;;;;;;;3.88;3.40;;;29.20;96.70;;;;;;4971293;28;20113;-82
2022/08/07 01:15:01;;;;;;;5.75;3.22;;;29.20;96.70;;;;;;4985414;28;20070;-83
2022/08/07 01:17:32;;;;;;;4.55;3.38;;;29.30;96.70;;;;;;4992609;28;20055;-83
2022/08/07 01:20:05;;;;;;;5.15;3.08;;;29.40;96.70;;;;;;4979506;28;20065;-83
2022/08/07 01:22:38;;;;;;;4.68;2.95;;;29.20;96.70;;;;;;4986454;28;20428;-83
2022/08/07 01:25:15;;;;;;;4.15;3.10;;;29.30;96.70;;;;;;4986083;28;20043;-82
2022/08/07 01:28:04;;;;;;;3.35;2.80;;;29.20;96.70;;;;;;4983710;28;20436;-83
2022/08/07 01:30:33;;;;;;;4.32;2.78;;;29.20;96.70;;;;;;4969219;28;20065;-84
2022/08/07 01:33:01;;;;;;;3.50;2.97;;;29.20;96.70;;;;;;4967758;28;20046;-83
2022/08/07 01:35:31;;;;;;;4.35;2.85;;;29.20;96.70;;;;;;4981526;28;20062;-84
2022/08/07 01:38:22;;;;;;;4.43;3.25;;;29.20;96.70;;;;;;4983795;28;20055;-83
2022/08/07 01:40:58;;;;;;;3.85;3.05;;;29.00;96.70;;;;;;4980003;28;20394;-84
2022/08/07 01:43:28;;;;;;;6.35;3.50;;;29.00;96.70;;;;;;4981958;28;20051;-83
2022/08/07 01:46:06;;;;;;;6.13;3.40;;;29.00;96.70;;;;;;4979826;28;20488;-84
2022/08/07 01:48:41;;;;;;;3.95;3.47;;;29.10;96.70;;;;;;4950215;28;20035;-85
2022/08/07 01:51:25;;;;;;;6.75;3.45;;;28.80;96.70;;;;;;4948699;28;20062;-83
2022/08/07 01:54:20;;;;;;;4.10;2.95;;;28.70;96.70;;;;;;4957265;28;20564;-84
2022/08/07 01:57:12;;;;;;;3.88;3.45;;;28.80;96.70;;;;;;4963672;28;20142;-83
2022/08/07 01:59:59;;;;;;;3.97;3.03;;;28.90;96.70;;;;;;4956725;28;20139;-83
2022/08/07 02:02:34;;;;;;;3.63;3.00;;;28.90;96.70;;;;;;4949267;28;20470;-84
2022/08/07 02:05:26;;;;;;;5.45;2.78;;;28.90;96.70;;;;;;4942073;28;20047;-84
2022/08/07 02:08:19;;;;;;;3.80;2.75;;;28.90;96.70;;;;;;4959650;28;20047;-84
2022/08/07 02:10:57;;;;;;;3.22;2.83;;;28.90;96.70;;;;;;4971164;28;20057;-83
2022/08/07 02:13:30;;;;;;;3.95;2.40;;;28.90;96.70;;;;;;4973819;28;20505;-82
2022/08/07 02:16:21;;;;;;;5.30;2.78;;;29.00;96.70;;;;;;4948706;28;20051;-84
2022/08/07 02:19:01;;;;;;;6.60;3.15;;;29.00;96.70;;;;;;4968837;28;20053;-84
2022/08/07 02:21:52;;;;;;;3.40;2.70;;;28.90;96.70;;;;;;4947469;28;20049;-83
2022/08/07 02:24:26;;;;;;;2.85;2.30;;;28.90;96.70;;;;;;4963866;28;20067;-83
2022/08/07 02:27:00;;;;;;;4.68;2.85;;;28.90;96.70;;;;;;4968586;28;20153;-83
2022/08/07 02:29:32;;;;;;;3.42;2.90;;;28.90;96.70;;;;;;4963561;28;20143;-84
2022/08/07 02:32:05;;;;;;;6.97;2.70;;;29.00;96.70;;;;;;4947280;28;20050;-83
2022/08/07 02:34:38;;;;;;;5.90;2.83;;;29.00;96.70;;;;;;4943805;28;20099;-83
2022/08/07 02:37:23;;;;;;;7.60;2.75;;;28.90;96.70;;;;;;4968430;28;20053;-84
2022/08/07 02:39:55;;;;;;;3.15;2.55;;;28.90;96.70;;;;;;4962689;28;20046;-82
2022/08/07 02:42:47;;;;;;;3.42;2.70;;;28.90;96.70;;;;;;4970062;28;20047;-84
2022/08/07 02:45:21;;;;;;;3.05;2.65;;;29.00;96.70;;;;;;4953411;28;20150;-84
2022/08/07 02:48:09;;;;;;;4.45;2.85;;;29.00;96.70;;;;;;4960694;28;21218;-84
2022/08/07 02:50:47;;;;;;;4.50;2.63;;;29.00;96.70;;;;;;4965680;28;20058;-84
2022/08/07 02:53:23;;;;;;;2.75;2.45;;;29.00;96.70;;;;;;4941224;28;20111;-83
2022/08/07 02:55:58;;;;;;;6.22;2.80;;;29.00;96.70;;;;;;4955203;28;21081;-84
2022/08/07 02:58:36;;;;;;;4.63;2.70;;;29.00;96.70;;;;;;4965876;28;20075;-84
2022/08/07 03:01:08;;;;;;;4.63;2.60;;;28.90;96.70;;;;;;4962380;28;20142;-84
2022/08/07 03:03:47;;;;;;;4.03;2.45;;;28.90;96.70;;;;;;4960612;28;20401;-83
2022/08/07 03:06:26;;;;;;;3.58;2.33;;;29.00;96.70;;;;;;4941404;28;20134;-83
2022/08/07 03:09:04;;;;;;;4.30;2.53;;;29.00;96.70;;;;;;4954068;28;20054;-83
2022/08/07 03:11:34;;;;;;;2.65;2.45;;;29.00;96.70;;;;;;4954595;28;20050;-84
2022/08/07 03:14:11;;;;;;;3.83;2.72;;;28.90;96.70;;;;;;4963763;28;20074;-84
2022/08/07 03:16:40;;;;;;;3.42;2.78;;;28.90;96.70;;;;;;4958085;28;20042;-83
2022/08/07 03:19:10;;;;;;;5.03;3.25;;;28.90;96.70;;;;;;4964474;28;20046;-83
2022/08/07 03:21:41;;;;;;;4.05;3.38;;;28.80;96.70;;;;;;4944416;28;20058;-84
2022/08/07 03:24:18;;;;;;;5.93;3.20;;;28.70;96.70;;;;;;4948703;28;20608;-83
2022/08/07 03:27:00;;;;;;;4.45;2.88;;;28.60;96.70;;;;;;4966981;28;20449;-83
2022/08/07 03:29:46;;;;;;;4.45;3.13;;;28.50;96.70;;;;;;4955409;28;20054;-83
2022/08/07 03:32:28;;;;;;;4.82;3.10;;;28.60;96.70;;;;;;4955463;28;20514;-83
2022/08/07 03:35:00;;;;;;;3.10;2.90;;;28.70;96.70;;;;;;4970449;28;20078;-81
2022/08/07 03:37:52;;;;;;;6.45;3.13;;;28.60;96.70;;;;;;4954801;28;20046;-82
2022/08/07 03:40:29;;;;;;;4.28;3.30;;;28.60;96.70;;;;;;4944855;28;20051;-82
2022/08/07 03:43:10;;;;;;;4.75;3.25;;;28.60;96.70;;;;;;4966348;28;20047;-82
2022/08/07 03:45:51;;;;;;;6.88;3.38;;;28.50;96.70;;;;;;4954834;28;20074;-84
2022/08/07 03:48:25;;;;;;;4.07;3.50;;;28.50;96.70;;;;;;4979178;28;20042;-83
2022/08/07 03:50:58;;;;;;;4.25;3.53;;;28.50;96.70;;;;;;4981765;28;20141;-83
2022/08/07 03:53:37;;;;;;;5.53;3.25;;;28.50;96.70;;;;;;4967878;28;20516;-83
2022/08/07 03:56:26;;;;;;;5.10;3.35;;;28.60;96.70;;;;;;4980821;28;20047;-83
2022/08/07 03:59:06;;;;;;;4.63;4.00;;;28.60;96.70;;;;;;4982036;28;20110;-84
2022/08/07 04:01:48;;;;;;;6.65;3.70;;;28.60;96.70;;;;;;4980847;28;20046;-83
2022/08/07 04:04:21;;;;;;;6.13;4.05;;;28.70;96.70;;;;;;4967209;28;20057;-83
2022/08/07 04:06:58;;;;;;;10.40;3.50;;;28.70;96.70;;;;;;4966119;28;20096;-84
2022/08/07 04:09:28;;;;;;;4.32;3.40;;;28.70;96.70;;;;;;4960413;28;20816;-84
2022/08/07 04:12:12;;;;;;;5.30;3.75;;;28.60;96.70;;;;;;4977606;28;20148;-84
2022/08/07 04:14:57;;;;;;;6.00;4.20;;;28.60;96.70;;;;;;4965821;28;20054;-84
2022/08/07 04:17:32;;;;;;;5.10;3.20;;;28.60;96.70;;;;;;4974480;28;20069;-82
2022/08/07 04:20:21;;;;;;;4.72;3.30;;;28.60;96.70;;;;;;4978691;28;20049;-82
2022/08/07 04:22:53;;;;;;;5.45;3.72;;;28.60;96.70;;;;;;4965369;28;20046;-83
2022/08/07 04:25:34;;;;;;;4.25;3.75;;;28.60;96.70;;;;;;4958815;28;20058;-84
2022/08/07 04:28:11;;;;;;;;;;;28.60;96.70;;;;;;4979846;28;20996;-83
2022/08/07 04:30:48;;;;;;;3.20;2.90;;;28.60;96.70;;;;;;4983150;28;19932;-82
2022/08/07 04:33:35;;;;;;;3.05;2.70;;;28.60;96.70;;;;;;4969118;28;20050;-83
2022/08/07 04:36:04;;;;;;;4.63;3.08;;;28.60;96.70;;;;;;4970565;28;20078;-84
2022/08/07 04:38:35;;;;;;;6.07;2.80;;;28.70;96.70;;;;;;4976254;28;20058;-84
2022/08/07 04:41:04;;;;;;;5.82;2.90;;;28.70;96.70;;;;;;4982020;28;20124;-84
2022/08/07 04:43:45;;;;;;;4.35;3.40;;;28.80;96.70;;;;;;4974643;28;20046;-84
2022/08/07 04:46:44;;;;;;;6.05;3.05;;;28.80;96.70;;;;;;4977162;28;20061;-84
2022/08/07 04:49:42;;;;;;;3.10;2.75;;;28.90;96.70;;;;;;4977375;28;20097;-84
2022/08/07 04:52:33;;;;;;;3.60;3.03;;;28.90;96.70;;;;;;4966094;28;20489;-84
2022/08/07 04:55:12;;;;;;;6.57;2.70;;;28.90;96.70;;;;;;4978482;28;20069;-83
2022/08/07 04:58:09;;;;;;;4.88;2.90;;;29.00;96.70;;;;;;4977996;28;20069;-84
2022/08/07 05:01:01;;;;;;;4.90;2.97;;;29.10;96.70;;;;;;4979273;28;20093;-83
2022/08/07 05:03:34;;;;;;;4.15;2.60;;;29.10;96.70;;;;;;4982527;28;20231;-85
2022/08/07 05:06:33;;;;;;;3.92;2.53;;;29.10;96.70;;;;;;4969130;28;20547;-84
2022/08/07 05:09:27;;;;;;;3.13;2.60;;;29.20;96.70;;;;;;4983961;28;20074;-85
2022/08/07 05:12:22;;;;;;;2.90;2.60;;;29.10;96.70;;;;;;4964924;28;20105;-84
2022/08/07 05:15:14;;;;;;;4.38;2.70;;;29.00;96.70;;;;;;4984844;28;20141;-83
2022/08/07 05:17:56;;;;;;;3.25;2.50;;;29.00;96.70;;;;;;4977026;28;20164;-83
2022/08/07 05:20:32;;;;;;;6.50;2.53;;;29.00;96.70;;;;;;4984817;28;20060;-84
2022/08/07 05:23:07;;;;;;;5.28;2.45;;;29.00;96.70;;;;;;4985073;28;20100;-85
2022/08/07 05:25:46;;;;;;;2.85;2.63;;;29.00;96.70;;;;;;4984897;28;20205;-84
2022/08/07 05:28:37;;;;;;;3.45;2.40;;;29.10;96.70;;;;;;4986816;28;20077;-87
2022/08/07 05:31:11;;;;;;;5.75;2.30;;;29.10;96.70;;;;;;4984154;28;20042;-86
2022/08/07 05:33:45;;;;;;;3.15;2.50;;;29.10;96.70;;;;;;4976009;28;20070;-81
2022/08/07 05:36:30;;;;;;;2.75;2.25;;;29.20;96.70;;;;;;4983740;28;20420;-83
2022/08/07 05:39:08;;;;;;;5.72;2.55;;;29.20;96.70;;;;;;4973841;28;20157;-85
2022/08/07 05:42:00;;;;;;;3.17;2.47;;;29.20;96.70;;;;;;4983319;28;20421;-83
2022/08/07 05:44:39;;;;;;;4.28;2.47;;;29.20;96.70;;;;;;4972601;28;20522;-88
2022/08/07 05:47:18;;;;;;;;;;;29.20;96.70;;;;;;4990344;28;20101;-85
2022/08/07 05:50:07;;;;;;;3.60;2.10;;;29.20;96.70;;;;;;4980254;28;19973;-85
2022/08/07 05:52:36;;;;;;;8.10;2.63;;;29.30;96.70;;;;;;4987239;28;20046;-80
2022/08/07 05:55:08;;;;;;;5.28;2.55;;;29.30;96.70;;;;;;4988091;28;20064;-82
2022/08/07 05:57:44;;;;;;;6.90;2.53;;;29.40;96.70;;;;;;4986283;28;20539;-85
2022/08/07 06:00:16;;;;;;;2.88;2.53;;;29.40;96.70;;;;;;4986753;28;20046;-84
2022/08/07 06:03:00;;;;;;;3.42;2.47;;;29.50;96.70;;;;;;4974777;28;20057;-83
2022/08/07 06:05:31;;;;;;;2.85;2.55;;;29.50;96.70;;;;;;4988823;28;20047;-84
2022/08/07 06:08:07;;;;;;;4.80;2.80;;;29.50;96.70;;;;;;4976177;28;20053;-80
2022/08/07 06:10:57;;;;;;;3.95;2.80;;;29.60;96.70;;;;;;4982312;28;21617;-80
2022/08/07 06:13:25;;;;;;;32.97;28.55;;;29.60;96.70;;;;;;4970643;28;20054;-81
2022/08/07 06:16:15;;;;;;;7.65;5.82;;;29.70;96.70;;;;;;4982049;28;20050;-81
2022/08/07 06:18:45;;;;;;;6.60;4.45;;;29.70;96.70;;;;;;4970094;28;20381;-82
2022/08/07 06:21:25;;;;;;;3.90;3.50;;;29.70;96.70;;;;;;4985165;28;20050;-86
2022/08/07 06:24:13;;;;;;;6.35;3.58;;;29.70;96.70;;;;;;4986375;28;20038;-81
2022/08/07 06:27:04;;;;;;;2.97;2.67;;;29.70;96.70;;;;;;4963289;28;20073;-80
2022/08/07 06:29:34;;;;;;;5.45;3.10;;;29.70;96.70;;;;;;4982345;28;20512;-80
2022/08/07 06:32:07;;;;;;;4.75;2.97;;;29.80;96.70;;;;;;4971448;28;20084;-81
2022/08/07 06:34:40;;;;;;;5.65;2.80;;;29.90;96.70;;;;;;4983682;28;20046;-80
2022/08/07 06:37:12;;;;;;;5.18;2.95;;;29.90;96.70;;;;;;4984070;28;20046;-81
2022/08/07 06:39:49;;;;;;;4.07;3.13;;;30.00;96.70;;;;;;4977550;28;20440;-80
2022/08/07 06:42:41;;;;;;;6.55;3.17;;;30.00;96.70;;;;;;4979659;28;20042;-79
2022/08/07 06:45:45;;;;;;;4.82;2.53;;;30.10;96.70;;;;;;4952321;28;20074;-83
2022/08/07 06:48:16;;;;;;;4.13;3.00;;;30.20;96.70;;;;;;4943882;28;20049;-80
2022/08/07 06:50:57;;;;;;;3.55;2.50;;;30.20;96.70;;;;;;4942718;28;20055;-79
2022/08/07 06:53:38;;;;;;;4.32;3.13;;;30.20;96.70;;;;;;4942468;28;20106;-79
2022/08/07 06:56:42;;;;;;;3.65;2.90;;;30.30;96.70;;;;;;4944875;29;20067;-80
2022/08/07 06:59:31;;;;;;;4.47;2.92;;;30.30;96.70;;;;;;4942874;28;20058;-80
2022/08/07 07:02:24;;;;;;;4.80;2.92;;;30.40;96.70;;;;;;4937353;28;20142;-76
2022/08/07 07:05:13;;;;;;;4.72;2.97;;;30.40;96.70;;;;;;4928608;29;20726;-78
2022/08/07 07:08:01;;;;;;;3.30;3.00;;;30.40;96.70;;;;;;4940352;28;20717;-79
2022/08/07 07:10:37;;;;;;;3.30;3.00;;;30.50;96.70;;;;;;4928037;29;20121;-78
2022/08/07 07:13:17;;;;;;;4.97;2.97;;;30.60;96.70;;;;;;4953307;28;20083;-80
2022/08/07 07:16:13;;;;;;;5.47;3.03;;;30.60;96.70;;;;;;4941665;28;20063;-80
2022/08/07 07:18:50;;;;;;;5.13;3.13;;;30.70;96.70;;;;;;4944022;29;20051;-81
2022/08/07 07:21:23;;;;;;;3.53;3.17;;;30.70;96.70;;;;;;4957168;28;20157;-80
2022/08/07 07:24:15;;;;;;;7.18;5.55;;;30.80;96.70;;;;;;4979758;28;20069;-81
2022/08/07 07:26:45;;;;;;;6.38;5.75;;;30.90;96.70;;;;;;4986098;28;20038;-80
2022/08/07 07:29:23;;;;;;;3.38;3.15;;;30.90;96.70;;;;;;4984381;28;20049;-82
2022/08/07 07:32:15;;;;;;;4.95;3.58;;;31.00;96.70;;;;;;4983900;28;20049;-81
2022/08/07 07:34:46;;;;;;;3.70;3.40;;;31.00;96.70;;;;;;4984845;28;20101;-81
2022/08/07 07:37:16;;;;;;;3.85;3.22;;;31.00;96.70;;;;;;4981741;28;20085;-81
2022/08/07 07:40:10;;;;;;;4.82;3.03;;;31.10;96.70;;;;;;4982619;28;20041;-79
2022/08/07 07:42:43;;;;;;;3.40;3.05;;;31.10;96.70;;;;;;4966817;28;20129;-80
2022/08/07 07:45:25;;;;;;;5.43;3.53;;;31.10;96.70;;;;;;4984580;28;20081;-79
2022/08/07 07:48:20;;;;;;;3.70;3.35;;;31.10;96.70;;;;;;4964669;28;20039;-78
2022/08/07 07:51:03;;;;;;;7.10;3.55;;;31.10;96.70;;;;;;4980987;28;20403;-81
2022/08/07 07:53:38;;;;;;;5.95;3.47;;;31.20;96.70;;;;;;4984087;28;20054;-79
2022/08/07 07:56:22;;;;;;;4.65;3.30;;;31.30;96.70;;;;;;4989007;28;20510;-81
2022/08/07 07:59:00;;;;;;;3.53;3.22;;;31.30;96.70;;;;;;4993121;28;20050;-81
2022/08/07 08:01:29;;;;;;;3.35;3.00;;;31.40;96.70;;;;;;4964577;28;20047;-81
2022/08/07 08:04:22;;;;;;;3.72;3.40;;;31.30;96.70;;;;;;4984123;28;20054;-81
2022/08/07 08:06:54;;;;;;;4.63;3.30;;;31.40;96.70;;;;;;4951363;28;20461;-80
2022/08/07 08:09:26;;;;;;;4.78;3.30;;;31.40;96.70;;;;;;4983602;28;20050;-78
2022/08/07 08:11:57;;;;;;;7.85;7.05;;;31.50;96.70;;;;;;4982255;28;20050;-78
2022/08/07 08:14:31;;;;;;;4.88;4.45;;;31.60;96.70;;;;;;4978326;28;20054;-82
2022/08/07 08:17:06;;;;;;;4.72;3.45;;;31.60;96.70;;;;;;4982490;28;20136;-80
2022/08/07 08:20:01;;;;;;;3.35;3.05;;;31.70;96.70;;;;;;4981319;28;20678;-81
2022/08/07 08:28:39;;;;;;;3.47;3.00;;;31.80;96.70;;;;;;4982427;28;20101;-81
2022/08/07 08:31:14;;;;;;;3.90;3.50;;;31.90;96.70;;;;;;4984072;28;20046;-79
2022/08/07 08:33:58;;;;;;;4.35;3.10;;;31.90;96.70;;;;;;4982294;28;20059;-82
2022/08/07 08:36:31;;;;;;;4.32;3.20;;;32.00;96.70;;;;;;4980910;28;20444;-83
2022/08/07 08:39:02;;;;;;;5.10;3.88;;;32.20;96.70;;;;;;4984470;28;20820;-81
2022/08/07 08:41:42;;;;;;;4.43;3.47;;;32.10;96.70;;;;;;4994636;28;20493;-82
2022/08/07 08:44:33;;;;;;;7.95;3.63;;;32.10;96.70;;;;;;4988156;28;20050;-83
2022/08/07 08:47:23;;;;;;;6.93;3.92;;;32.20;96.70;;;;;;4971793;28;20129;-83
2022/08/07 08:50:01;;;;;;;6.45;4.03;;;32.40;96.70;;;;;;4980669;28;20171;-80
2022/08/07 08:52:37;;;;;;;4.50;3.78;;;32.60;96.70;;;;;;4983595;28;20046;-80
2022/08/07 08:55:26;;;;;;;4.07;3.00;;;32.60;96.70;;;;;;4969798;28;20068;-82
2022/08/07 08:58:26;;;;;;;3.72;3.42;;;32.60;96.70;;;;;;4978112;28;20051;-82
2022/08/07 09:01:01;;;;;;;4.97;3.75;;;32.70;96.70;;;;;;4977108;28;20547;-82
2022/08/07 09:03:55;;;;;;;3.95;3.55;;;32.70;96.70;;;;;;4981326;28;20093;-83
2022/08/07 09:06:37;;;;;;;6.68;3.70;;;32.80;96.70;;;;;;4984705;28;20451;-81
2022/08/07 09:09:34;;;;;;;4.43;3.53;;;32.90;96.70;;;;;;4964763;28;20474;-80
2022/08/07 09:12:16;;;;;;;7.93;3.83;;;33.00;96.70;;;;;;4950798;28;20043;-81
2022/08/07 09:15:09;;;;;;;4.90;3.40;;;33.10;96.70;;;;;;4983792;28;20047;-81
2022/08/07 09:18:24;;;;;;;5.38;3.95;;;33.10;96.70;;;;;;4966319;28;20561;-81
2022/08/07 09:21:10;;;;;;;6.53;4.07;;;33.10;96.70;;;;;;4966744;28;20051;-81
2022/08/07 09:24:09;;;;;;;6.03;3.85;;;33.20;96.70;;;;;;4971293;28;20171;-80
2022/08/07 09:27:08;;;;;;;4.85;3.40;;;33.30;96.70;;;;;;4963892;28;20413;-78
2022/08/07 09:29:52;;;;;;;5.18;3.58;;;33.50;96.70;;;;;;4960906;28;20047;-78
2022/08/07 09:32:57;;;;;;;3.92;3.63;;;33.40;96.70;;;;;;4962912;28;20101;-82
2022/08/07 09:35:41;;;;;;;5.00;3.50;;;33.50;96.70;;;;;;4982462;28;20047;-80
2022/08/07 09:38:37;;;;;;;5.32;3.63;;;33.70;96.70;;;;;;4967290;28;20095;-80
2022/08/07 09:41:21;;;;;;;5.32;3.67;;;33.80;96.70;;;;;;4960585;28;20628;-80
2022/08/07 09:44:05;;;;;;;4.13;3.72;;;33.80;96.70;;;;;;4975023;28;20142;-79
2022/08/07 09:47:06;;;;;;;4.13;3.60;;;33.80;96.70;;;;;;4943578;28;20422;-82
2022/08/07 09:50:02;;;;;;;4.32;3.88;;;33.50;96.70;;;;;;4943732;28;20114;-82
2022/08/07 09:52:48;;;;;;;4.65;3.45;;;33.70;96.70;;;;;;4961410;28;20138;-80
2022/08/07 09:55:28;;;;;;;3.97;3.67;;;34.00;96.70;;;;;;4948980;29;20138;-82
2022/08/07 09:58:37;;;;;;;7.82;3.63;;;34.00;96.70;;;;;;4962915;28;20516;-81
2022/08/07 10:01:31;;;;;;;4.70;3.10;;;34.00;96.70;;;;;;4955728;28;20059;-80
2022/08/07 10:04:47;;;;;;;5.88;3.25;;;33.80;96.70;;;;;;4961384;28;20073;-81
2022/08/07 10:07:43;;;;;;;7.80;3.60;;;33.80;96.70;;;;;;4950314;28;20487;-81
2022/08/07 10:10:38;;;;;;;7.72;3.42;;;33.90;96.70;;;;;;4948271;29;20736;-81
2022/08/07 10:13:44;;;;;;;3.30;3.00;;;34.10;96.70;;;;;;4949075;28;20047;-83
2022/08/07 10:17:05;;;;;;;4.68;3.15;;;34.00;96.70;;;;;;4957877;28;20631;-81
2022/08/07 10:19:56;;;;;;;6.90;2.95;;;34.00;96.70;;;;;;4941642;28;20686;-80
2022/08/07 10:22:45;;;;;;;4.20;3.17;;;34.00;96.70;;;;;;4946427;28;20513;-78
2022/08/07 10:25:41;;;;;;;6.85;3.28;;;34.20;96.70;;;;;;4957071;28;20051;-80
2022/08/07 10:28:50;;;;;;;4.80;3.17;;;34.40;96.70;;;;;;4915775;29;20051;-79
2022/08/07 10:31:37;;;;;;;4.78;3.20;;;34.50;96.70;;;;;;4943336;28;20047;-79
2022/08/07 10:34:29;;;;;;;3.65;3.30;;;34.60;96.70;;;;;;4955100;28;20099;-78
2022/08/07 10:37:18;;;;;;;5.00;3.67;;;34.50;96.70;;;;;;4930424;29;20051;-79
2022/08/07 10:40:12;;;;;;;4.63;3.97;;;34.50;96.70;;;;;;4943419;29;20039;-80
2022/08/07 10:42:55;;;;;;;3.50;3.20;;;34.60;96.70;;;;;;4961159;28;20134;-79
2022/08/07 10:45:29;;;;;;;4.70;3.58;;;34.90;96.60;;;;;;4959885;28;20424;-80
2022/08/07 10:48:34;;;;;;;4.40;3.33;;;35.10;96.50;;;;;;4967575;28;20097;-81
2022/08/07 10:51:09;;;;;;;5.00;3.67;;;35.00;96.10;;;;;;4980295;28;20046;-77
2022/08/07 10:54:11;;;;;;;7.93;6.18;;;35.00;95.80;;;;;;4974654;28;20051;-79
2022/08/07 10:56:56;;;;;;;6.00;4.25;;;34.90;96.30;;;;;;4980368;28;20134;-79
2022/08/07 10:59:37;;;;;;;4.43;3.42;;;35.20;95.80;;;;;;4970727;28;20051;-78
2022/08/07 11:02:22;;;;;;;5.13;3.85;;;35.20;95.20;;;;;;4965077;28;20042;-78
2022/08/07 11:05:36;;;;;;;4.00;3.50;;;35.30;94.80;;;;;;4978884;28;20043;-80
2022/08/07 11:08:35;;;;;;;4.05;3.30;;;35.50;95.30;;;;;;4968052;28;20117;-81
2022/08/07 11:11:09;;;;;;;4.50;3.97;;;35.50;94.70;;;;;;4977480;28;20160;-79
2022/08/07 11:13:41;;;;;;;4.28;3.47;;;35.20;94.20;;;;;;4975893;28;20046;-84
2022/08/07 11:16:35;;;;;;;3.58;3.28;;;35.10;94.90;;;;;;4966565;28;20515;-83
2022/08/07 11:19:10;;;;;;;3.70;3.40;;;35.20;95.10;;;;;;4965088;28;20065;-81
2022/08/07 11:21:45;;;;;;;3.42;3.13;;;35.30;94.80;;;;;;4959337;28;20567;-80
2022/08/07 11:24:21;;;;;;;5.57;3.30;;;35.20;94.60;;;;;;4963656;28;20050;-81
2022/08/07 11:26:56;;;;;;;3.72;3.42;;;35.20;94.30;;;;;;4965964;28;20042;-80
2022/08/07 11:29:39;;;;;;;4.00;3.60;;;35.40;94.90;;;;;;4963735;28;20042;-78
2022/08/07 11:32:16;;;;;;;4.47;3.25;;;35.60;94.00;;;;;;4968117;28;20121;-79
2022/08/07 11:34:57;;;;;;;3.85;3.40;;;35.70;94.10;;;;;;4978852;28;20047;-82
2022/08/07 11:37:40;;;;;;;3.97;3.67;;;36.00;93.90;;;;;;4966875;28;20512;-80
2022/08/07 11:40:42;;;;;;;4.78;3.42;;;36.20;93.20;;;;;;4979643;28;20049;-80
2022/08/07 11:43:21;;;;;;;3.90;3.38;;;36.00;92.90;;;;;;4963567;28;20406;-78
2022/08/07 11:46:29;;;;;;;3.83;3.53;;;35.70;93.30;;;;;;4971257;28;20069;-82
2022/08/07 11:49:28;;;;;;;3.45;3.15;;;35.60;93.60;;;;;;4966007;28;20053;-80
2022/08/07 11:52:41;;;;;;;3.80;3.50;;;35.70;93.60;;;;;;4936096;28;20151;-82
2022/08/07 11:55:25;;;;;;;4.82;3.50;;;35.80;93.10;;;;;;4923902;29;20146;-82
2022/08/07 11:58:25;;;;;;;4.15;3.63;;;35.90;93.10;;;;;;4938014;29;20541;-82
2022/08/07 12:01:11;;;;;;;4.60;3.47;;;36.00;92.50;;;;;;4940131;29;20052;-81
2022/08/07 12:04:06;;;;;;;7.13;4.45;;;36.00;92.10;;;;;;4905576;29;20502;-82
2022/08/07 12:06:45;;;;;;;3.72;3.42;;;36.00;92.20;;;;;;4923748;29;20552;-81
2022/08/07 12:09:36;;;;;;;5.28;4.10;;;36.00;92.30;;;;;;4924871;28;20052;-82
2022/08/07 12:12:07;;;;;;;5.45;3.40;;;36.20;91.70;;;;;;4978669;28;20070;-81
2022/08/07 12:14:48;;;;;;;3.22;3.03;;;36.20;91.70;;;;;;4979971;28;20568;-80
2022/08/07 12:17:38;;;;;;;4.47;3.67;;;36.20;91.70;;;;;;4978086;28;20079;-77
2022/08/07 12:20:32;;;;;;;3.47;3.03;;;36.20;92.00;;;;;;4961801;28;20070;-77
2022/08/07 12:23:30;;;;;;;4.38;3.13;;;36.40;92.30;;;;;;4957302;28;20046;-81
2022/08/07 12:26:27;;;;;;;3.72;3.35;;;36.50;91.40;;;;;;4973483;28;20430;-79
2022/08/07 12:29:18;;;;;;;3.65;2.92;;;36.60;91.10;;;;;;4971306;28;20121;-77
2022/08/07 12:32:16;;;;;;;8.43;3.17;;;36.60;91.70;;;;;;4982632;28;20059;-77
2022/08/07 12:34:49;;;;;;;4.05;3.45;;;36.20;91.60;;;;;;4973969;28;20049;-77
2022/08/07 12:37:25;;;;;;;4.43;2.90;;;36.30;91.90;;;;;;4979237;28;20061;-76
2022/08/07 12:40:19;;;;;;;4.53;3.15;;;36.00;91.70;;;;;;4960422;28;20509;-76
2022/08/07 12:43:10;;;;;;;3.55;3.20;;;35.90;92.40;;;;;;4964548;28;20400;-76
2022/08/07 12:46:12;;;;;;;3.28;2.85;;;36.30;91.90;;;;;;4958471;28;20065;-76
2022/08/07 12:49:02;;;;;;;2.92;2.72;;;36.20;91.60;;;;;;4946805;28;20137;-76
2022/08/07 12:52:01;;;;;;;4.40;2.60;;;36.20;92.00;;;;;;4962175;28;20049;-78
2022/08/07 12:54:54;;;;;;;3.28;3.00;;;36.50;92.10;;;;;;4943074;28;20054;-77
2022/08/07 12:57:32;;;;;;;3.40;3.10;;;36.80;91.10;;;;;;4962191;28;20067;-78
2022/08/07 13:00:27;;;;;;;3.10;2.90;;;36.70;91.00;;;;;;4957444;28;20058;-76
2022/08/07 13:03:17;;;;;;;3.40;3.10;;;36.40;91.30;;;;;;4958275;28;20058;-77
2022/08/07 13:06:20;;;;;;;4.95;2.72;;;36.10;91.60;;;;;;4960451;28;20059;-77
2022/08/07 13:09:06;;;;;;;6.85;2.85;;;35.80;91.80;;;;;;4958127;28;20058;-78
2022/08/07 13:12:08;;;;;;;3.85;2.80;;;35.50;92.80;;;;;;4975414;28;20047;-80
2022/08/07 13:14:53;;;;;;;3.10;2.80;;;35.40;92.90;;;;;;4976740;28;20043;-80
2022/08/07 13:17:32;;;;;;;3.17;2.97;;;35.20;93.00;;;;;;4958031;28;20070;-79
2022/08/07 13:20:14;;;;;;;2.90;2.70;;;35.10;93.50;;;;;;4977756;28;20620;-79
2022/08/07 13:22:50;;;;;;;3.35;3.05;;;35.00;93.30;;;;;;4977575;28;20063;-81
2022/08/07 13:25:28;;;;;;;3.15;2.67;;;34.90;93.70;;;;;;4982100;28;20116;-82
2022/08/07 13:28:02;;;;;;;3.00;2.80;;;34.80;93.80;;;;;;4970863;28;20042;-86
2022/08/07 13:30:48;;;;;;;5.65;3.83;;;34.70;93.60;;;;;;4985010;28;20050;-83
2022/08/07 13:33:36;;;;;;;6.65;4.05;;;34.80;94.00;;;;;;4970059;28;20122;-86
2022/08/07 13:36:31;;;;;;;4.03;3.72;;;34.80;93.90;;;;;;4980859;28;20042;-86
2022/08/07 13:39:16;;;;;;;3.88;3.13;;;34.70;94.00;;;;;;4981976;28;20051;-85
2022/08/07 13:42:08;;;;;;;4.00;2.60;;;34.60;94.10;;;;;;4966003;28;20050;-80
2022/08/07 13:44:40;;;;;;;3.03;2.47;;;34.60;93.90;;;;;;4983733;28;20046;-79
2022/08/07 13:47:10;;;;;;;3.22;2.75;;;34.60;94.00;;;;;;4985513;28;20084;-80
2022/08/07 13:49:51;;;;;;;2.92;2.63;;;34.70;93.80;;;;;;4985075;28;20053;-80
2022/08/07 13:52:43;;;;;;;3.00;2.65;;;34.70;93.80;;;;;;4980928;28;20153;-79
2022/08/07 13:55:18;;;;;;;4.15;2.35;;;34.80;93.80;;;;;;4986458;28;20101;-79
2022/08/07 13:58:59;;;;;;;3.63;2.42;;;34.90;93.50;;;;;;4983444;28;20147;-78
2022/08/07 14:01:00;;;;;;;2.33;2.13;;;34.90;93.40;;;;;;4982655;28;20141;-78
2022/08/07 14:03:39;;;;;;;3.35;2.15;;;34.90;93.60;;;;;;4986900;28;20047;-80
2022/08/07 14:06:31;;;;;;;5.68;2.30;;;34.90;93.80;;;;;;4984719;28;20636;-80
2022/08/07 14:09:03;;;;;;;2.63;2.10;;;34.90;94.00;;;;;;4984040;28;20595;-81
2022/08/07 14:11:41;;;;;;;1.95;1.85;;;34.90;94.10;;;;;;4982048;28;20051;-81
2022/08/07 14:14:30;;;;;;;3.70;2.25;;;34.80;94.10;;;;;;4983527;28;20073;-80
2022/08/07 14:17:02;;;;;;;2.50;1.90;;;34.70;94.30;;;;;;4980763;28;20042;-79